createdAt,value
2023-08-27T00:01:10.975Z,100336.13
2023-08-27T00:03:37.521Z,100326.09
2023-08-27T00:06:04.258Z,100315.84
2023-08-27T00:08:30.729Z,100301.31
2023-08-27T00:10:58.978Z,100296.91
2023-08-27T00:13:25.458Z,100277.75
2023-08-27T00:15:52.009Z,100270.22
2023-08-27T00:18:18.650Z,100258.97
2023-08-27T00:20:48.862Z,100260.78
2023-08-27T00:23:16.033Z,100288.09
2023-08-27T00:25:45.293Z,100296.91
2023-08-27T00:28:15.527Z,100291.88
2023-08-27T00:30:42.649Z,100280.28
2023-08-27T00:33:09.385Z,100284.28
2023-08-27T00:35:37.031Z,100278.81
2023-08-27T00:38:07.119Z,100264.47
2023-08-27T00:40:33.687Z,100258.16
2023-08-27T00:43:00.384Z,100262.69
2023-08-27T00:45:27.303Z,100245.25
2023-08-27T00:47:53.810Z,100236.31
2023-08-27T00:50:20.447Z,100234.94
2023-08-27T00:52:47.310Z,100235.38
2023-08-27T00:55:13.820Z,100229.03
2023-08-27T00:57:41.189Z,100217.97
2023-08-27T01:00:11.094Z,100208.56
2023-08-27T01:02:39.213Z,100200.50
2023-08-27T01:05:06.413Z,100196.91
2023-08-27T01:07:50.464Z,100188.31
2023-08-27T01:10:25.618Z,100181.19
2023-08-27T01:13:05.944Z,100184.78
2023-08-27T01:15:33.866Z,100199.88
2023-08-27T01:18:01.643Z,100192.28
2023-08-27T01:20:29.013Z,100195.09
2023-08-27T01:22:55.782Z,100195.91
2023-08-27T01:25:26.891Z,100204.28
2023-08-27T01:28:33.182Z,100205.38
2023-08-27T01:31:16.721Z,100210.16
2023-08-27T01:33:43.720Z,100217.28
2023-08-27T01:36:10.812Z,100219.09
2023-08-27T01:38:37.367Z,100231.75
2023-08-27T01:41:03.844Z,100217.06
2023-08-27T01:43:30.281Z,100205.84
2023-08-27T01:45:56.867Z,100209.28
2023-08-27T01:48:23.336Z,100206.00
2023-08-27T01:50:49.799Z,100202.31
2023-08-27T01:53:16.312Z,100199.16
2023-08-27T01:55:42.788Z,100204.50
2023-08-27T01:58:09.247Z,100210.25
2023-08-27T02:00:35.785Z,100219.03
2023-08-27T02:03:02.455Z,100210.19
2023-08-27T02:05:29.141Z,100211.00
2023-08-27T02:07:55.591Z,100214.34
2023-08-27T02:10:22.012Z,100212.16
2023-08-27T02:12:48.449Z,100208.41
2023-08-27T02:15:14.906Z,100219.50
2023-08-27T02:17:41.420Z,100208.78
2023-08-27T02:20:11.062Z,100207.97
2023-08-27T02:22:38.105Z,100199.63
2023-08-27T02:25:05.744Z,100191.28
2023-08-27T02:27:32.244Z,100188.44
2023-08-27T02:29:58.702Z,100188.59
2023-08-27T02:32:25.318Z,100191.94
2023-08-27T02:34:52.021Z,100197.66
2023-08-27T02:37:18.534Z,100189.03
2023-08-27T02:39:45.105Z,100185.31
2023-08-27T02:42:11.562Z,100179.38
2023-08-27T02:44:38.033Z,100168.69
2023-08-27T02:47:04.910Z,100161.88
2023-08-27T02:49:31.364Z,100165.41
2023-08-27T02:51:57.797Z,100155.31
2023-08-27T02:54:24.285Z,100157.25
2023-08-27T02:56:50.723Z,100152.72
2023-08-27T02:59:17.150Z,100151.97
2023-08-27T03:01:43.764Z,100155.31
2023-08-27T03:04:10.284Z,100152.56
2023-08-27T03:06:36.746Z,100144.16
2023-08-27T03:09:03.410Z,100148.56
2023-08-27T03:11:29.921Z,100148.75
2023-08-27T03:13:56.357Z,100153.16
2023-08-27T03:16:22.845Z,100148.91
2023-08-27T03:18:49.484Z,100147.94
2023-08-27T03:21:15.920Z,100144.97
2023-08-27T03:23:42.354Z,100134.34
2023-08-27T03:26:08.898Z,100149.84
2023-08-27T03:28:35.517Z,100151.06
2023-08-27T03:31:03.899Z,100149.72
2023-08-27T03:33:32.827Z,100153.22
2023-08-27T03:36:00.598Z,100142.88
2023-08-27T03:38:27.117Z,100137.06
2023-08-27T03:40:53.831Z,100138.50
2023-08-27T03:43:20.279Z,100146.03
2023-08-27T03:45:46.964Z,100149.66
2023-08-27T03:48:13.576Z,100151.53
2023-08-27T03:50:40.019Z,100152.44
2023-08-27T03:53:06.992Z,100148.19
2023-08-27T03:55:42.675Z,100156.56
2023-08-27T03:58:09.891Z,100151.75
2023-08-27T04:00:36.513Z,100146.19
2023-08-27T04:03:03.983Z,100130.84
2023-08-27T04:05:30.765Z,100137.94
2023-08-27T04:07:57.433Z,100150.50
2023-08-27T04:10:23.878Z,100149.66
2023-08-27T04:12:50.334Z,100154.41
2023-08-27T04:15:17.115Z,100157.25
2023-08-27T04:17:43.660Z,100146.69
2023-08-27T04:20:10.679Z,100140.22
2023-08-27T04:22:37.125Z,100132.94
2023-08-27T04:25:03.792Z,100131.88
2023-08-27T04:27:30.411Z,100130.97
2023-08-27T04:29:56.903Z,100138.34
2023-08-27T04:32:23.412Z,100144.09
2023-08-27T04:34:49.826Z,100145.44
2023-08-27T04:37:16.285Z,100145.03
2023-08-27T04:39:42.790Z,100148.69
2023-08-27T04:42:09.227Z,100153.91
2023-08-27T04:44:35.686Z,100153.25
2023-08-27T04:47:02.129Z,100140.22
2023-08-27T04:49:28.588Z,100132.00
2023-08-27T04:51:55.024Z,100123.25
2023-08-27T04:54:21.452Z,100119.53
2023-08-27T04:56:47.914Z,100116.16
2023-08-27T04:59:14.358Z,100126.66
2023-08-27T05:01:40.834Z,100132.41
2023-08-27T05:04:07.344Z,100137.69
2023-08-27T05:06:33.801Z,100152.47
2023-08-27T05:09:00.242Z,100162.97
2023-08-27T05:11:26.738Z,100153.06
2023-08-27T05:13:53.222Z,100134.69
2023-08-27T05:16:19.711Z,100140.03
2023-08-27T05:18:46.199Z,100137.44
2023-08-27T05:21:12.720Z,100125.41
2023-08-27T05:23:39.171Z,100132.31
2023-08-27T05:26:06.131Z,100123.53
2023-08-27T05:28:32.580Z,100121.00
2023-08-27T05:30:59.055Z,100119.38
2023-08-27T05:33:25.618Z,100117.78
2023-08-27T05:35:52.182Z,100112.69
2023-08-27T05:38:18.689Z,100111.31
2023-08-27T05:40:45.132Z,100109.00
2023-08-27T05:43:11.610Z,100110.66
2023-08-27T05:45:38.084Z,100108.59
2023-08-27T05:48:05.234Z,100099.53
2023-08-27T05:50:34.545Z,100090.44
2023-08-27T05:53:03.076Z,100079.09
2023-08-27T05:55:29.533Z,100103.78
2023-08-27T05:57:56.048Z,100111.59
2023-08-27T06:00:22.511Z,100106.44
2023-08-27T06:02:49.011Z,100103.88
2023-08-27T06:05:15.500Z,100095.84
2023-08-27T06:07:41.990Z,100110.78
2023-08-27T06:10:09.260Z,100128.16
2023-08-27T06:12:35.747Z,100139.28
2023-08-27T06:15:02.212Z,100138.66
2023-08-27T06:17:28.650Z,100151.56
2023-08-27T06:19:55.475Z,100158.25
2023-08-27T06:22:22.430Z,100155.09
2023-08-27T06:24:50.230Z,100142.38
2023-08-27T06:27:16.745Z,100157.69
2023-08-27T06:29:46.474Z,100146.63
2023-08-27T06:32:14.872Z,100142.16
2023-08-27T06:34:41.454Z,100150.91
2023-08-27T06:37:07.967Z,100154.50
2023-08-27T06:39:34.417Z,100158.84
2023-08-27T06:42:00.928Z,100170.97
2023-08-27T06:44:27.374Z,100176.19
2023-08-27T06:46:53.852Z,100180.66
2023-08-27T06:49:21.085Z,100180.81
2023-08-27T06:51:47.586Z,100182.09
2023-08-27T06:54:14.937Z,100180.81
2023-08-27T06:56:41.412Z,100182.03
2023-08-27T06:59:07.865Z,100188.81
2023-08-27T07:01:34.311Z,100198.59
2023-08-27T07:04:00.781Z,100201.09
2023-08-27T07:06:27.251Z,100204.66
2023-08-27T07:08:53.684Z,100202.53
2023-08-27T07:11:20.129Z,100202.34
2023-08-27T07:13:49.136Z,100207.00
2023-08-27T07:16:17.386Z,100198.72
2023-08-27T07:18:43.931Z,100203.88
2023-08-27T07:21:10.554Z,100215.00
2023-08-27T07:23:37.005Z,100228.78
2023-08-27T07:26:04.934Z,100214.06
2023-08-27T07:28:32.006Z,100211.81
2023-08-27T07:30:58.584Z,100221.59
2023-08-27T07:33:25.085Z,100222.56
2023-08-27T07:35:51.553Z,100215.97
2023-08-27T07:38:18.125Z,100213.97
2023-08-27T07:40:44.624Z,100208.84
2023-08-27T07:43:11.107Z,100207.28
2023-08-27T07:45:37.638Z,100197.16
2023-08-27T07:48:04.542Z,100184.03
2023-08-27T07:50:31.364Z,100183.53
2023-08-27T07:52:57.832Z,100178.47
2023-08-27T07:55:24.301Z,100176.16
2023-08-27T07:57:50.738Z,100189.03
2023-08-27T08:00:19.193Z,100185.25
2023-08-27T08:02:45.705Z,100179.34
2023-08-27T08:05:12.216Z,100166.63
2023-08-27T08:07:39.215Z,100182.53
2023-08-27T08:10:06.060Z,100182.56
2023-08-27T08:12:32.572Z,100171.28
2023-08-27T08:14:59.025Z,100172.03
2023-08-27T08:17:39.499Z,100178.97
2023-08-27T08:20:11.558Z,100177.59
2023-08-27T08:22:38.019Z,100178.91
2023-08-27T08:25:04.682Z,100193.09
2023-08-27T08:27:31.154Z,100189.84
2023-08-27T08:29:57.610Z,100197.69
2023-08-27T08:32:24.052Z,100203.56
2023-08-27T08:34:50.564Z,100201.13
2023-08-27T08:37:17.023Z,100199.22
2023-08-27T08:39:43.525Z,100193.28
2023-08-27T08:42:24.835Z,100197.56
2023-08-27T08:45:15.508Z,100193.53
2023-08-27T08:47:44.689Z,100192.03
2023-08-27T08:50:14.044Z,100191.03
2023-08-27T08:52:41.076Z,100195.59
2023-08-27T08:55:10.351Z,100192.31
2023-08-27T08:57:48.895Z,100196.59
2023-08-27T09:00:15.503Z,100203.84
2023-08-27T09:02:43.049Z,100207.34
2023-08-27T09:05:11.826Z,100203.34
2023-08-27T09:07:39.792Z,100201.06
2023-08-27T09:10:06.587Z,100191.94
2023-08-27T09:12:33.486Z,100201.81
2023-08-27T09:14:59.932Z,100198.88
2023-08-27T09:17:27.130Z,100193.25
2023-08-27T09:19:54.653Z,100194.31
2023-08-27T09:22:21.137Z,100197.94
2023-08-27T09:24:47.673Z,100197.91
2023-08-27T09:27:14.198Z,100186.19
2023-08-27T09:29:41.796Z,100181.44
2023-08-27T09:32:08.288Z,100178.56
2023-08-27T09:34:40.830Z,100180.47
2023-08-27T09:37:07.377Z,100182.47
2023-08-27T09:39:33.931Z,100183.91
2023-08-27T09:42:00.976Z,100181.81
2023-08-27T09:44:27.425Z,100174.81
2023-08-27T09:46:53.887Z,100171.84
2023-08-27T09:49:24.257Z,100178.41
2023-08-27T09:51:56.381Z,100167.44
2023-08-27T09:54:23.485Z,100166.88
2023-08-27T09:56:51.309Z,100145.78
2023-08-27T09:59:22.170Z,100144.50
2023-08-27T10:01:50.461Z,100135.81
2023-08-27T10:04:18.167Z,100140.06
2023-08-27T10:06:45.001Z,100131.44
2023-08-27T10:09:11.507Z,100122.41
2023-08-27T10:11:38.276Z,100115.75
2023-08-27T10:14:05.962Z,100110.06
2023-08-27T10:16:32.813Z,100107.91
2023-08-27T10:18:59.307Z,100112.47
2023-08-27T10:21:25.861Z,100110.78
2023-08-27T10:23:53.649Z,100113.63
2023-08-27T10:26:20.342Z,100106.13
2023-08-27T10:28:48.016Z,100104.91
2023-08-27T10:31:14.946Z,100102.41
2023-08-27T10:33:41.541Z,100095.44
2023-08-27T10:36:12.564Z,100093.00
2023-08-27T10:38:41.550Z,100092.31
2023-08-27T10:41:08.125Z,100099.88
2023-08-27T10:43:35.424Z,100089.50
2023-08-27T10:46:17.970Z,100088.75
2023-08-27T10:48:54.404Z,100078.94
2023-08-27T10:51:22.584Z,100088.59
2023-08-27T10:53:48.924Z,100086.78
2023-08-27T10:56:27.557Z,100097.97
2023-08-27T10:58:57.486Z,100091.66
2023-08-27T11:01:24.037Z,100093.69
2023-08-27T11:04:01.691Z,100097.16
2023-08-27T11:06:37.190Z,100102.06
2023-08-27T11:09:20.754Z,100108.13
2023-08-27T11:12:02.093Z,100091.19
2023-08-27T11:14:28.569Z,100085.53
2023-08-27T11:17:05.190Z,100095.06
2023-08-27T11:19:36.547Z,100084.31
2023-08-27T11:22:14.989Z,100088.09
2023-08-27T11:24:45.865Z,100083.88
2023-08-27T11:27:13.347Z,100082.69
2023-08-27T11:29:43.652Z,100085.72
2023-08-27T11:32:11.221Z,100085.66
2023-08-27T11:34:42.018Z,100073.50
2023-08-27T11:37:08.957Z,100083.06
2023-08-27T11:39:38.756Z,100080.38
2023-08-27T11:42:12.342Z,100077.66
2023-08-27T11:44:51.737Z,100091.75
2023-08-27T11:47:18.928Z,100092.41
2023-08-27T11:49:45.680Z,100096.41
2023-08-27T11:52:16.108Z,100095.38
2023-08-27T11:54:44.302Z,100085.47
2023-08-27T11:57:10.912Z,100078.06
2023-08-27T11:59:39.914Z,100070.69
2023-08-27T12:02:07.854Z,100075.06
2023-08-27T12:04:34.594Z,100071.44
2023-08-27T12:07:04.030Z,100051.97
2023-08-27T12:09:34.546Z,100058.69
2023-08-27T12:12:06.041Z,100055.34
2023-08-27T12:14:32.791Z,100049.22
2023-08-27T12:17:11.001Z,100050.06
2023-08-27T12:19:40.673Z,100051.59
2023-08-27T12:22:07.365Z,100052.91
2023-08-27T12:24:42.229Z,100041.63
2023-08-27T12:27:10.762Z,100045.91
2023-08-27T12:29:38.882Z,100043.13
2023-08-27T12:32:13.273Z,100034.91
2023-08-27T12:34:41.480Z,100026.66
2023-08-27T12:37:08.467Z,100028.50
2023-08-27T12:39:35.016Z,100007.31
2023-08-27T12:42:01.973Z,100005.56
2023-08-27T12:44:29.168Z,100007.34
2023-08-27T12:46:55.806Z,100001.03
2023-08-27T12:49:22.418Z,100000.75
2023-08-27T12:51:48.946Z,99996.75
2023-08-27T12:54:16.337Z,100006.22
2023-08-27T12:56:43.119Z,100006.22
2023-08-27T12:59:11.429Z,100006.09
2023-08-27T13:01:40.213Z,100001.13
2023-08-27T13:04:07.662Z,100009.97
2023-08-27T13:06:34.645Z,100004.66
2023-08-27T13:09:01.484Z,100011.19
2023-08-27T13:11:29.249Z,100016.31
2023-08-27T13:13:56.393Z,100000.19
2023-08-27T13:16:23.545Z,100003.56
2023-08-27T13:18:50.110Z,99994.63
2023-08-27T13:21:19.988Z,99997.63
2023-08-27T13:23:46.869Z,100004.69
2023-08-27T13:26:13.625Z,99994.81
2023-08-27T13:28:40.313Z,99990.69
2023-08-27T13:31:06.815Z,99993.56
2023-08-27T13:33:33.287Z,99984.53
2023-08-27T13:36:00.412Z,100002.03
2023-08-27T13:38:27.021Z,100011.94
2023-08-27T13:40:53.471Z,100013.09
2023-08-27T13:43:19.944Z,100001.16
2023-08-27T13:45:46.394Z,100005.47
2023-08-27T13:48:12.878Z,100010.88
2023-08-27T13:50:39.490Z,100012.63
2023-08-27T13:53:06.027Z,100038.22
2023-08-27T13:55:33.303Z,100081.25
2023-08-27T13:57:59.966Z,100106.63
2023-08-27T14:00:26.696Z,100125.22
2023-08-27T14:02:53.354Z,100124.41
2023-08-27T14:05:19.983Z,100134.72
2023-08-27T14:07:46.438Z,100148.19
2023-08-27T14:10:13.238Z,100156.47
2023-08-27T14:12:39.685Z,100168.50
2023-08-27T14:15:06.564Z,100188.84
2023-08-27T14:17:33.037Z,100223.25
2023-08-27T14:19:59.501Z,100239.47
2023-08-27T14:22:27.214Z,100231.59
2023-08-27T14:24:53.722Z,100231.88
2023-08-27T14:27:20.351Z,100220.22
2023-08-27T14:29:46.849Z,100207.97
2023-08-27T14:32:13.329Z,100191.22
2023-08-27T14:34:39.846Z,100177.72
2023-08-27T14:37:06.349Z,100170.78
2023-08-27T14:39:33.924Z,100158.94
2023-08-27T14:42:00.351Z,100146.47
2023-08-27T14:44:26.775Z,100146.13
2023-08-27T14:46:53.312Z,100146.91
2023-08-27T14:49:19.912Z,100133.25
2023-08-27T14:51:46.394Z,100125.09
2023-08-27T14:54:13.052Z,100131.59
2023-08-27T14:56:39.723Z,100137.84
2023-08-27T14:59:42.142Z,100123.97
2023-08-27T15:02:10.707Z,100121.81
2023-08-27T15:04:37.329Z,100125.56
2023-08-27T15:07:04.021Z,100123.91
2023-08-27T15:09:32.165Z,100129.13
2023-08-27T15:11:58.598Z,100116.03
2023-08-27T15:14:25.081Z,100113.03
2023-08-27T15:16:52.359Z,100119.97
2023-08-27T15:19:18.996Z,100125.69
2023-08-27T15:21:48.488Z,100131.47
2023-08-27T15:24:15.411Z,100126.66
2023-08-27T15:26:42.027Z,100130.53
2023-08-27T15:29:08.504Z,100132.91
2023-08-27T15:31:36.013Z,100127.81
2023-08-27T15:34:06.030Z,100126.59
2023-08-27T15:36:32.712Z,100124.59
2023-08-27T15:38:59.264Z,100128.13
2023-08-27T15:41:25.712Z,100134.81
2023-08-27T15:43:52.207Z,100132.97
2023-08-27T15:46:18.696Z,100126.25
2023-08-27T15:48:45.174Z,100129.06
2023-08-27T15:51:12.120Z,100120.16
2023-08-27T15:53:38.583Z,100120.31
2023-08-27T15:56:05.027Z,100125.56
2023-08-27T15:58:31.493Z,100121.03
2023-08-27T16:00:58.022Z,100126.47
2023-08-27T16:03:24.647Z,100133.84
2023-08-27T16:05:51.127Z,100135.88
2023-08-27T16:08:17.554Z,100134.56
2023-08-27T16:10:44.014Z,100126.03
2023-08-27T16:13:10.568Z,100131.56
2023-08-27T16:15:37.054Z,100129.09
2023-08-27T16:18:03.954Z,100128.28
2023-08-27T16:20:30.863Z,100133.47
2023-08-27T16:22:57.287Z,100141.28
2023-08-27T16:25:23.757Z,100143.84
2023-08-27T16:27:50.219Z,100141.88
2023-08-27T16:30:16.658Z,100138.88
2023-08-27T16:32:43.179Z,100129.72
2023-08-27T16:35:10.203Z,100124.31
2023-08-27T16:37:36.658Z,100120.53
2023-08-27T16:40:05.106Z,100123.25
2023-08-27T16:42:32.087Z,100124.38
2023-08-27T16:44:59.723Z,100133.28
2023-08-27T16:47:26.861Z,100141.19
2023-08-27T16:49:54.758Z,100140.53
2023-08-27T16:52:21.491Z,100153.81
2023-08-27T16:54:49.365Z,100153.06
2023-08-27T16:57:15.847Z,100154.28
2023-08-27T16:59:42.343Z,100150.38
2023-08-27T17:02:08.914Z,100152.84
2023-08-27T17:04:35.394Z,100147.47
2023-08-27T17:07:01.922Z,100148.44
2023-08-27T17:09:28.899Z,100153.91
2023-08-27T17:11:55.387Z,100159.75
2023-08-27T17:14:22.933Z,100154.09
2023-08-27T17:16:49.408Z,100163.22
2023-08-27T17:19:15.871Z,100162.59
2023-08-27T17:21:44.006Z,100181.63
2023-08-27T17:24:11.050Z,100181.75
2023-08-27T17:26:37.945Z,100189.28
2023-08-27T17:29:04.547Z,100188.31
2023-08-27T17:31:31.168Z,100184.47
2023-08-27T17:33:57.642Z,100188.53
2023-08-27T17:36:24.069Z,100187.56
2023-08-27T17:38:50.544Z,100196.38
2023-08-27T17:41:17.839Z,100197.38
2023-08-27T17:43:44.274Z,100197.56
2023-08-27T17:46:11.805Z,100200.78
2023-08-27T17:48:38.436Z,100209.19
2023-08-27T17:51:04.935Z,100215.28
2023-08-27T17:53:32.132Z,100214.56
2023-08-27T17:55:58.579Z,100227.75
2023-08-27T17:58:25.032Z,100224.13
2023-08-27T18:00:57.804Z,100229.63
2023-08-27T18:03:24.621Z,100227.75
2023-08-27T18:05:51.209Z,100230.53
2023-08-27T18:08:20.891Z,100239.31
2023-08-27T18:10:47.404Z,100241.97
2023-08-27T18:13:13.878Z,100236.50
2023-08-27T18:15:40.445Z,100242.06
2023-08-27T18:18:07.047Z,100250.31
2023-08-27T18:20:33.876Z,100251.81
2023-08-27T18:23:00.500Z,100257.09
2023-08-27T18:25:26.943Z,100250.25
2023-08-27T18:27:53.407Z,100257.03
2023-08-27T18:30:19.933Z,100259.94
2023-08-27T18:32:46.436Z,100268.16
2023-08-27T18:35:12.976Z,100278.56
2023-08-27T18:37:39.928Z,100283.28
2023-08-27T18:40:10.144Z,100280.44
2023-08-27T18:42:36.822Z,100292.22
2023-08-27T18:45:04.135Z,100287.69
2023-08-27T18:47:31.117Z,100285.75
2023-08-27T18:49:57.692Z,100272.13
2023-08-27T18:52:24.214Z,100278.88
2023-08-27T18:54:50.663Z,100276.88
2023-08-27T18:57:17.491Z,100283.38
2023-08-27T18:59:43.946Z,100283.19
2023-08-27T19:02:10.734Z,100298.56
2023-08-27T19:04:38.595Z,100294.75
2023-08-27T19:07:05.244Z,100297.63
2023-08-27T19:09:31.784Z,100292.34
2023-08-27T19:11:58.270Z,100297.94
2023-08-27T19:14:24.894Z,100300.41
2023-08-27T19:16:51.446Z,100307.25
2023-08-27T19:19:18.290Z,100303.81
2023-08-27T19:21:44.805Z,100303.38
2023-08-27T19:24:11.353Z,100315.16
2023-08-27T19:26:38.450Z,100324.28
2023-08-27T19:29:05.681Z,100322.19
2023-08-27T19:31:44.731Z,100331.50
2023-08-27T19:34:13.475Z,100321.41
2023-08-27T19:36:39.958Z,100334.63
2023-08-27T19:39:06.551Z,100328.69
2023-08-27T19:41:33.275Z,100334.88
2023-08-27T19:43:59.809Z,100327.41
2023-08-27T19:46:26.296Z,100327.47
2023-08-27T19:48:54.835Z,100332.63
2023-08-27T19:51:21.847Z,100336.31
2023-08-27T19:53:48.848Z,100342.66
2023-08-27T19:56:15.338Z,100341.75
2023-08-27T19:58:41.782Z,100344.28
2023-08-27T20:01:08.320Z,100344.94
2023-08-27T20:03:34.905Z,100343.06
2023-08-27T20:06:01.612Z,100340.94
2023-08-27T20:08:28.144Z,100343.78
2023-08-27T20:10:54.642Z,100345.72
2023-08-27T20:13:21.475Z,100356.13
2023-08-27T20:15:48.007Z,100361.19
2023-08-27T20:18:15.204Z,100362.78
2023-08-27T20:20:41.675Z,100357.59
2023-08-27T20:23:08.440Z,100364.06
2023-08-27T20:25:35.059Z,100361.25
2023-08-27T20:28:01.662Z,100365.66
2023-08-27T20:30:28.983Z,100373.97
2023-08-27T20:32:55.715Z,100372.09
2023-08-27T20:35:24.047Z,100366.88
2023-08-27T20:37:51.434Z,100365.97
2023-08-27T20:40:18.083Z,100371.91
2023-08-27T20:42:47.337Z,100369.06
2023-08-27T20:45:14.184Z,100376.94
2023-08-27T20:47:40.881Z,100376.63
2023-08-27T20:50:07.858Z,100375.63
2023-08-27T20:52:34.355Z,100379.88
2023-08-27T20:55:00.947Z,100378.97
2023-08-27T20:57:28.185Z,100380.50
2023-08-27T20:59:55.106Z,100385.53
2023-08-27T21:02:22.215Z,100389.59
2023-08-27T21:04:48.833Z,100393.63
2023-08-27T21:07:15.614Z,100388.03
2023-08-27T21:09:42.142Z,100396.13
2023-08-27T21:12:08.620Z,100391.69
2023-08-27T21:14:35.069Z,100393.44
2023-08-27T21:17:01.579Z,100396.47
2023-08-27T21:19:28.028Z,100402.66
2023-08-27T21:21:54.438Z,100396.22
2023-08-27T21:24:20.885Z,100413.44
2023-08-27T21:26:47.376Z,100411.94
2023-08-27T21:29:13.834Z,100415.91
2023-08-27T21:31:53.680Z,100416.63
2023-08-27T21:34:21.290Z,100418.25
2023-08-27T21:36:48.825Z,100413.22
2023-08-27T21:39:15.933Z,100414.09
2023-08-27T21:41:42.396Z,100412.06
2023-08-27T21:44:08.888Z,100422.69
2023-08-27T21:46:35.365Z,100423.19
2023-08-27T21:49:01.834Z,100433.03
2023-08-27T21:51:28.350Z,100424.41
2023-08-27T21:53:54.772Z,100429.69
2023-08-27T21:56:21.513Z,100428.97
2023-08-27T21:58:47.971Z,100424.50
2023-08-27T22:01:14.581Z,100434.50
2023-08-27T22:03:41.231Z,100439.78
2023-08-27T22:06:07.755Z,100437.97
2023-08-27T22:08:35.010Z,100440.50
2023-08-27T22:11:01.454Z,100436.47
2023-08-27T22:13:27.883Z,100444.00
2023-08-27T22:15:54.805Z,100438.78
2023-08-27T22:18:21.301Z,100438.22
2023-08-27T22:20:48.343Z,100439.25
2023-08-27T22:23:14.797Z,100440.34
2023-08-27T22:25:41.547Z,100435.78
2023-08-27T22:28:08.085Z,100434.97
2023-08-27T22:30:34.603Z,100422.56
2023-08-27T22:33:02.496Z,100425.47
2023-08-27T22:35:29.200Z,100427.13
2023-08-27T22:37:55.638Z,100427.06
2023-08-27T22:40:25.247Z,100424.44
2023-08-27T22:42:52.864Z,100433.34
2023-08-27T22:45:19.372Z,100434.25
2023-08-27T22:47:45.963Z,100435.31
2023-08-27T22:50:12.619Z,100433.72
2023-08-27T22:52:39.092Z,100433.19
2023-08-27T22:55:06.068Z,100423.88
2023-08-27T22:57:33.058Z,100437.16
2023-08-27T22:59:59.504Z,100434.53
2023-08-27T23:02:26.081Z,100429.44
2023-08-27T23:04:52.554Z,100436.59
2023-08-27T23:07:18.996Z,100437.66
2023-08-27T23:09:45.450Z,100425.66
2023-08-27T23:12:11.937Z,100423.22
2023-08-27T23:14:38.425Z,100422.88
2023-08-27T23:17:05.003Z,100415.97
2023-08-27T23:19:31.488Z,100417.22
2023-08-27T23:21:58.346Z,100415.25
2023-08-27T23:24:26.395Z,100418.84
2023-08-27T23:26:53.372Z,100409.59
2023-08-27T23:29:21.084Z,100399.47
2023-08-27T23:31:47.631Z,100395.34
2023-08-27T23:34:14.199Z,100402.97
2023-08-27T23:36:40.674Z,100412.13
2023-08-27T23:39:07.168Z,100414.72
2023-08-27T23:41:33.635Z,100423.16
2023-08-27T23:44:01.049Z,100433.81
2023-08-27T23:46:30.132Z,100428.16
2023-08-27T23:48:58.463Z,100437.03
2023-08-27T23:51:24.892Z,100428.84
2023-08-27T23:53:51.382Z,100445.50
2023-08-27T23:56:17.824Z,100444.72
2023-08-27T23:58:44.528Z,100447.09
